Hiroshima, Japan

1:06 AM JST on August 30, 2015 (GMT +0900)
Iwakuni Marine Corps Air Station | | Change Station
CLOSE
Current Station
Airport
Location: Iwakuni MCAS,
Elevation: 7 ft
Nearby Weather Stations

Elev 7 ft 34.14 °N, 132.24 °E | Updated 11 minutes ago

Light Rain
Light Rain Mist
74 °F
Feels Like 74 °F
N
0
Wind Variable Wind from North

Today
High -- | Low -- °F
--% Chance of Precip.
Yesterday
High -- | Low -- °F
Precip. -- in
5:41 AM 6:40 PM
Full, 100% visible
Pressure 29.77 in
Visibility 5.0 miles
Clouds Few 500 ft
Scattered Clouds 1500 ft
Overcast 3000 ft
Dew Point 72 °F
Humidity 93%
Rainfall 0.00 in
Snow Depth Not available.
UV 0 out of 12
Pollen Not available.
Air Quality Not available.
Flu Activity Not available.
METAR RJOI 291555Z 00000KT 8000 -RA BR FEW005 SCT015 OVC030 23/22 A2976 RMK RAB50 SLP079 P0000 T02330222
Pressure 29.77 in
Visibility 5.0 miles
Clouds Few 500 ft
Scattered Clouds 1500 ft
Overcast 3000 ft
Dew Point 72 °F
Humidity 93%
Rainfall 0.00 in
Snow Depth Not available.
UV 0 out of 12
Pollen Not available.
Air Quality Not available.
Flu Activity Not available.
METAR RJOI 291555Z 00000KT 8000 -RA BR FEW005 SCT015 OVC030 23/22 A2976 RMK RAB50 SLP079 P0000 T02330222

10-Day Weather Forecast

×

Almanac

Astronomy

Aug. 30, 2015 Rise Set
Actual Time
Civil Twilight
Nautical Twilight
Astronomical Twilight
Moon
Length of Visible Light
Length of Day
Tomorrow will be .
, % of the Moon is Illuminated

Today's Extremes

Country Highs Country Lows

Community

WunderPhotos

Upload Photos

1,850,709 photos uploaded!

WunderBlogs® & News

Nearby

Air Quality

  Air Quality AQ Index Pollutant
Not available.

Snow Depth

Station Depth Elevation

Earthquake Activity

City Distance Mag. Time & Date
Minimum magnitude displayed is 2.5.

Coastal Water Temperatures

Place Temperature

Stations

Nearby Weather Stations

Station Location Temp. Windchill Dew Point Humidity Wind Precip. Elev Updated Type